Time;durP1;ratioP1;P1;durP2;ratioP2;P2;SDS_P1;SDS_P2;PMS_P1;PMS_P2;Temp;Humidity;BMP_temperature;BMP_pressure;BME280_temperature;BME280_humidity;BME280_pressure;Samples;Min_cycle;Max_cycle;Signal;HPM_P1;HPM_P2
2022/01/10 00:00:55;;;;;;;5.75;3.33;;;;;;;-1.98;100.00;100272.75;5039103;28;20081;-50
2022/01/10 00:03:23;;;;;;;5.57;3.03;;;;;;;-1.95;100.00;100274.28;5035016;28;20032;-51
2022/01/10 00:05:50;;;;;;;10.63;3.28;;;;;;;-1.94;100.00;100268.94;5040297;28;20112;-51
2022/01/10 00:08:15;;;;;;;9.55;4.57;;;;;;;-1.91;100.00;100270.47;5042790;28;20470;-47
2022/01/10 00:10:42;;;;;;;6.20;3.28;;;;;;;-1.88;100.00;100275.47;5042873;28;20033;-53
2022/01/10 00:13:08;;;;;;;13.07;3.67;;;;;;;-1.86;100.00;100273.56;5032140;28;20056;-53
2022/01/10 00:15:33;;;;;;;10.73;4.63;;;;;;;-1.84;100.00;100274.28;5036466;28;20104;-51
2022/01/10 00:17:59;;;;;;;11.85;3.63;;;;;;;-1.85;100.00;100283.03;5043483;28;20490;-52
2022/01/10 00:20:24;;;;;;;10.75;4.18;;;;;;;-1.88;100.00;100280.69;5042920;28;20045;-53
2022/01/10 00:22:51;;;;;;;12.73;3.17;;;;;;;-1.89;100.00;100286.78;5030620;28;20028;-50
2022/01/10 00:25:19;;;;;;;7.47;4.43;;;;;;;-1.91;100.00;100296.47;5040211;28;20033;-50
2022/01/10 00:27:45;;;;;;;8.13;3.25;;;;;;;-1.94;100.00;100301.91;5036054;28;20070;-52
2022/01/10 00:30:11;;;;;;;11.10;2.95;;;;;;;-1.93;100.00;100303.59;5034835;28;20110;-50
2022/01/10 00:32:38;;;;;;;4.60;2.25;;;;;;;-1.97;100.00;100319.38;5036006;28;20037;-47
2022/01/10 00:35:06;;;;;;;6.57;2.92;;;;;;;-2.00;100.00;100321.38;5036268;28;20063;-50
2022/01/10 00:37:33;;;;;;;8.43;2.58;;;;;;;-1.98;100.00;100325.53;5043377;28;20536;-49
2022/01/10 00:39:58;;;;;;;10.55;2.67;;;;;;;-1.91;100.00;100325.06;5031958;28;20047;-51
2022/01/10 00:42:24;;;;;;;10.68;3.92;;;;;;;-1.89;100.00;100329.19;5043010;28;20033;-50
2022/01/10 00:44:51;;;;;;;7.00;2.83;;;;;;;-1.86;100.00;100334.19;5047646;28;20401;-49
2022/01/10 00:47:18;;;;;;;5.82;4.00;;;;;;;-1.85;100.00;100332.41;5041446;28;20627;-50
2022/01/10 00:49:44;;;;;;;5.75;2.58;;;;;;;-1.86;100.00;100331.59;5048544;28;20024;-49
2022/01/10 00:52:09;;;;;;;11.02;4.20;;;;;;;-1.84;100.00;100340.09;5025107;28;20477;-53
2022/01/10 00:54:35;;;;;;;10.00;3.17;;;;;;;-1.82;100.00;100350.38;5039810;28;20029;-51
2022/01/10 00:57:00;;;;;;;7.57;2.58;;;;;;;-1.81;100.00;100359.81;5041630;28;20030;-54
2022/01/10 00:59:26;;;;;;;9.60;2.63;;;;;;;-1.80;100.00;100364.09;5041926;28;20094;-51
2022/01/10 01:01:51;;;;;;;3.95;2.10;;;;;;;-1.77;100.00;100361.25;5047382;28;20041;-53
2022/01/10 01:04:17;;;;;;;6.50;2.67;;;;;;;-1.75;100.00;100359.38;5038926;28;20041;-56
2022/01/10 01:06:42;;;;;;;3.30;2.17;;;;;;;-1.71;100.00;100368.59;5034203;28;20040;-48
2022/01/10 01:09:11;;;;;;;10.65;2.97;;;;;;;-1.68;100.00;100365.75;5044813;28;20044;-49
2022/01/10 01:14:11;;;;;;;6.90;2.83;;;;;;;-1.60;100.00;100375.56;5046991;28;20123;-53
2022/01/10 01:24:16;;;;;;;3.92;0.98;;;;;;;-1.47;100.00;100385.88;5045995;28;20044;-52
2022/01/10 01:26:44;;;;;;;5.93;2.03;;;;;;;-1.46;100.00;100390.16;5047757;28;20104;-51
2022/01/10 01:29:11;;;;;;;10.13;2.88;;;;;;;-1.47;100.00;100389.34;5045709;28;20148;-48
2022/01/10 01:31:37;;;;;;;5.13;1.75;;;;;;;-1.47;100.00;100391.09;5047347;28;20140;-49
2022/01/10 01:34:04;;;;;;;4.72;1.35;;;;;;;-1.45;100.00;100402.22;5038274;28;20598;-53
2022/01/10 01:36:31;;;;;;;4.93;1.27;;;;;;;-1.44;100.00;100406.50;5032389;28;20034;-49
2022/01/10 01:38:57;;;;;;;9.85;2.53;;;;;;;-1.46;100.00;100401.38;5041978;28;20401;-52
2022/01/10 01:43:52;;;;;;;2.65;1.05;;;;;;;-1.47;100.00;100411.91;5039538;28;20118;-52
2022/01/10 01:46:19;;;;;;;4.30;2.03;;;;;;;-1.46;100.00;100416.16;5041551;28;20115;-50
2022/01/10 01:48:45;;;;;;;3.63;1.42;;;;;;;-1.44;100.00;100424.69;5037906;28;20479;-51
2022/01/10 01:51:11;;;;;;;11.60;1.85;;;;;;;-1.40;100.00;100426.09;5039179;28;20033;-48
2022/01/10 01:53:37;;;;;;;4.95;2.67;;;;;;;-1.37;100.00;100444.94;5043034;28;20474;-52
2022/01/10 01:56:05;;;;;;;4.25;1.90;;;;;;;-1.36;100.00;100443.16;5040143;28;20071;-48
2022/01/10 01:58:31;;;;;;;4.13;2.15;;;;;;;-1.35;100.00;100450.81;5035903;28;20379;-51
2022/01/10 02:00:57;;;;;;;3.55;1.95;;;;;;;-1.34;100.00;100454.28;5037074;28;20613;-52
2022/01/10 02:03:22;;;;;;;9.43;3.63;;;;;;;-1.33;100.00;100458.53;5040333;28;20031;-49
2022/01/10 02:05:48;;;;;;;4.20;1.52;;;;;;;-1.30;100.00;100454.88;5039167;28;20402;-49
2022/01/10 02:08:13;;;;;;;6.22;2.00;;;;;;;-1.27;100.00;100460.66;5036399;28;20059;-51
2022/01/10 02:10:39;;;;;;;6.65;2.63;;;;;;;-1.24;100.00;100473.47;5038494;28;20069;-51
2022/01/10 02:13:04;;;;;;;5.70;1.70;;;;;;;-1.24;100.00;100465.66;5034772;28;20038;-53
2022/01/10 02:15:51;;;;;;;5.70;1.77;;;;;;;-1.24;100.00;100473.47;5037703;28;20114;-49
2022/01/10 02:18:17;;;;;;;5.90;1.70;;;;;;;-1.24;100.00;100483.88;5036998;28;20037;-51
2022/01/10 02:20:43;;;;;;;5.65;1.88;;;;;;;-1.24;100.00;100483.88;5040425;28;20363;-51
2022/01/10 02:23:09;;;;;;;3.05;1.27;;;;;;;-1.22;100.00;100483.72;5039223;28;20036;-48
2022/01/10 02:25:35;;;;;;;3.65;1.33;;;;;;;-1.23;100.00;100490.72;5034236;28;20033;-48
2022/01/10 02:28:00;;;;;;;6.63;1.38;;;;;;;-1.24;100.00;100489.06;5039153;28;20040;-54
2022/01/10 02:30:27;;;;;;;4.00;1.42;;;;;;;-1.25;100.00;100486.56;5045676;28;20024;-50
2022/01/10 02:32:56;;;;;;;8.55;2.15;;;;;;;-1.27;100.00;100488.44;5045796;28;20035;-49
2022/01/10 02:35:36;;;;;;;10.32;1.60;;;;;;;-1.25;100.00;100486.56;5016163;28;20082;-53
2022/01/10 02:38:03;;;;;;;5.72;1.85;;;;;;;-1.21;100.00;100488.81;5040582;28;20032;-50
2022/01/10 02:40:30;;;;;;;9.38;1.83;;;;;;;-1.19;100.00;100496.50;5042233;28;20450;-51
2022/01/10 02:42:57;;;;;;;2.20;0.90;;;;;;;-1.18;100.00;100492.97;5043124;28;20137;-52
2022/01/10 02:45:23;;;;;;;6.13;1.65;;;;;;;-1.20;100.00;100485.28;5035056;28;20083;-51
2022/01/10 02:47:49;;;;;;;3.53;1.75;;;;;;;-1.22;100.00;100497.56;5046030;28;20477;-48
2022/01/10 02:50:15;;;;;;;5.25;1.92;;;;;;;-1.21;100.00;100509.66;5044372;28;20530;-50
2022/01/10 02:52:41;;;;;;;4.82;1.20;;;;;;;-1.19;100.00;100510.38;5038427;28;20037;-50
2022/01/10 02:55:08;;;;;;;5.55;1.30;;;;;;;-1.16;100.00;100504.94;5044269;28;20103;-52
2022/01/10 02:57:34;;;;;;;2.33;1.75;;;;;;;-1.16;100.00;100517.09;5046600;28;20513;-51
2022/01/10 03:00:05;;;;;;;7.75;2.50;;;;;;;-1.13;100.00;100517.69;5039062;28;20136;-50
2022/01/10 03:02:33;;;;;;;7.78;1.58;;;;;;;-1.08;100.00;100519.13;5042040;28;20037;-50
2022/01/10 03:04:59;;;;;;;6.45;1.52;;;;;;;-1.05;100.00;100524.13;5045746;28;20064;-49
2022/01/10 03:07:25;;;;;;;9.63;2.33;;;;;;;-1.05;100.00;100511.94;5043991;28;20528;-53
2022/01/10 03:09:50;;;;;;;2.78;1.25;;;;;;;-1.05;100.00;100518.91;5053997;28;20040;-50
2022/01/10 03:12:16;;;;;;;0.82;0.70;;;;;;;-1.07;100.00;100520.78;5034267;28;20033;-52
2022/01/10 03:14:43;;;;;;;9.45;2.70;;;;;;;-1.05;100.00;100518.91;5040976;28;20446;-48
2022/01/10 03:17:10;;;;;;;8.98;1.20;;;;;;;-1.02;100.00;100523.88;5043738;28;20071;-48
2022/01/10 03:19:36;;;;;;;4.90;2.00;;;;;;;-1.01;100.00;100533.34;5045730;28;20079;-48
2022/01/10 03:22:02;;;;;;;6.28;2.95;;;;;;;-1.04;100.00;100533.56;5045314;28;20514;-52
2022/01/10 03:24:27;;;;;;;7.32;2.17;;;;;;;-1.07;100.00;100539.84;5040782;28;20095;-48
2022/01/10 03:26:53;;;;;;;7.95;2.33;;;;;;;-1.06;100.00;100545.84;5034033;28;20043;-48
2022/01/10 03:29:19;;;;;;;3.05;0.77;;;;;;;-1.05;100.00;100552.75;5041308;28;20063;-49
2022/01/10 03:31:45;;;;;;;4.65;1.92;;;;;;;-1.05;100.00;100550.97;5041000;28;20059;-51
2022/01/10 03:34:12;;;;;;;6.28;1.38;;;;;;;-0.99;100.00;100554.88;5040806;28;20470;-52
2022/01/10 03:36:38;;;;;;;3.42;2.38;;;;;;;-0.96;100.00;100559.84;5036581;28;20166;-49
2022/01/10 03:39:04;;;;;;;4.97;2.60;;;;;;;-0.96;100.00;100552.03;5051344;28;20048;-49
2022/01/10 03:41:29;;;;;;;7.22;1.58;;;;;;;-0.95;100.00;100551.94;5040651;28;20079;-52
2022/01/10 03:43:54;;;;;;;2.92;1.10;;;;;;;-0.95;100.00;100556.31;5038399;28;20500;-50
2022/01/10 03:46:20;;;;;;;4.32;2.22;;;;;;;-0.96;100.00;100563.28;5043419;28;20549;-49
2022/01/10 03:48:45;;;;;;;9.13;1.80;;;;;;;-0.98;100.00;100561.72;5040851;28;20035;-50
2022/01/10 03:51:11;;;;;;;2.15;1.92;;;;;;;-1.00;100.00;100563.63;5025690;28;20543;-54
2022/01/10 03:53:36;;;;;;;1.90;1.30;;;;;;;-1.00;100.00;100576.66;5045189;28;20028;-54
2022/01/10 03:56:02;;;;;;;3.40;1.00;;;;;;;-0.99;100.00;100567.88;5043291;28;20103;-48
2022/01/10 03:58:28;;;;;;;7.68;1.52;;;;;;;-0.99;100.00;100566.09;5043336;28;20086;-48
2022/01/10 04:00:54;;;;;;;4.30;1.65;;;;;;;-1.00;100.00;100574.88;5027125;28;20389;-52
2022/01/10 04:03:19;;;;;;;5.28;0.98;;;;;;;-1.00;100.00;100571.44;5037672;28;20021;-53
2022/01/10 04:05:45;;;;;;;13.52;2.33;;;;;;;-1.00;100.00;100568.84;5038601;28;20382;-49
2022/01/10 04:08:12;;;;;;;4.80;1.20;;;;;;;-0.99;100.00;100588.72;5043386;28;20494;-50
2022/01/10 04:10:37;;;;;;;4.50;1.63;;;;;;;-1.02;100.00;100591.53;5026884;28;20039;-51
2022/01/10 04:13:03;;;;;;;11.32;2.53;;;;;;;-1.03;100.00;100601.13;5034785;28;20038;-49
2022/01/10 04:15:28;;;;;;;4.45;1.92;;;;;;;-1.00;100.00;100600.06;5041160;28;20039;-53
2022/01/10 04:17:56;;;;;;;7.00;1.63;;;;;;;-0.98;100.00;100598.16;5037556;28;20306;-47
2022/01/10 04:20:23;;;;;;;5.28;1.38;;;;;;;-0.95;100.00;100597.97;5037963;28;20087;-47
2022/01/10 04:22:48;;;;;;;1.38;0.90;;;;;;;-0.97;100.00;100600.66;5048743;28;20188;-49
2022/01/10 04:25:14;;;;;;;4.57;1.20;;;;;;;-0.94;100.00;100604.81;5048287;28;20036;-52
2022/01/10 04:27:39;;;;;;;4.10;1.85;;;;;;;-0.93;100.00;100616.88;5039976;28;20541;-49
2022/01/10 04:30:05;;;;;;;7.97;1.33;;;;;;;-0.91;100.00;100612.41;5044062;28;20040;-49
2022/01/10 04:32:32;;;;;;;2.35;1.42;;;;;;;-0.88;100.00;100612.16;5041887;28;20045;-50
2022/01/10 04:34:58;;;;;;;3.17;1.27;;;;;;;-0.89;100.00;100615.72;5043475;28;20033;-51
2022/01/10 04:37:24;;;;;;;2.75;1.45;;;;;;;-0.88;100.00;100625.19;5046326;28;20093;-52
2022/01/10 04:39:49;;;;;;;8.43;1.25;;;;;;;-0.86;100.00;100628.50;5020626;28;20032;-51
2022/01/10 04:42:15;;;;;;;2.35;1.08;;;;;;;-0.84;100.00;100628.41;5047161;28;20041;-52
2022/01/10 04:44:41;;;;;;;11.45;1.20;;;;;;;-0.83;100.00;100635.25;5038921;28;20040;-51
2022/01/10 04:47:07;;;;;;;4.45;1.55;;;;;;;-0.83;100.00;100638.69;5048053;28;20029;-48
2022/01/10 04:49:49;;;;;;;1.52;1.20;;;;;;;-0.83;100.00;100643.88;5048154;28;20056;-50
2022/01/10 04:52:14;;;;;;;5.68;0.93;;;;;;;-0.83;100.00;100661.28;5033841;28;20042;-49
2022/01/10 04:54:40;;;;;;;1.95;1.05;;;;;;;-0.80;100.00;100658.47;5047881;28;20397;-49
2022/01/10 04:57:05;;;;;;;3.00;0.95;;;;;;;-0.78;100.00;100657.41;5047350;28;20058;-47
2022/01/10 04:59:30;;;;;;;3.33;1.10;;;;;;;-0.75;100.00;100666.75;5040876;28;20110;-47
2022/01/10 05:01:56;;;;;;;1.98;0.95;;;;;;;-0.74;100.00;100669.25;5046724;28;20036;-49
2022/01/10 05:04:21;;;;;;;1.00;0.70;;;;;;;-0.69;100.00;100680.16;5047759;28;20500;-49
2022/01/10 05:06:46;;;;;;;6.50;1.17;;;;;;;-0.66;100.00;100692.97;5044483;28;20887;-52
2022/01/10 05:09:12;;;;;;;1.55;0.82;;;;;;;-0.66;100.00;100692.13;5043028;28;20029;-53
2022/01/10 05:11:39;;;;;;;7.55;1.73;;;;;;;-0.67;100.00;100700.91;5040853;28;20547;-47
2022/01/10 05:14:05;;;;;;;1.92;1.15;;;;;;;-0.68;100.00;100700.03;5051752;28;20091;-47
2022/01/10 05:16:30;;;;;;;1.85;0.90;;;;;;;-0.66;100.00;100692.97;5045452;28;20076;-53
2022/01/10 05:18:56;;;;;;;3.88;0.95;;;;;;;-0.66;100.00;100685.16;5039796;28;21172;-50
2022/01/10 05:21:21;;;;;;;5.57;1.40;;;;;;;-0.65;100.00;100691.19;5041940;28;20041;-50
2022/01/10 05:23:46;;;;;;;4.65;1.52;;;;;;;-0.60;100.00;100706.47;5034941;28;20047;-52
2022/01/10 05:26:12;;;;;;;10.55;2.92;;;;;;;-0.58;100.00;100710.63;5040698;28;20043;-50
2022/01/10 05:28:37;;;;;;;2.42;0.75;;;;;;;-0.57;100.00;100708.84;5041923;28;20044;-52
2022/01/10 05:31:03;;;;;;;1.27;0.82;;;;;;;-0.58;100.00;100704.59;5042201;28;20036;-50
2022/01/10 05:33:28;;;;;;;3.33;1.05;;;;;;;-0.59;100.00;100703.75;5035926;28;20033;-51
2022/01/10 05:35:54;;;;;;;4.43;1.15;;;;;;;-0.59;100.00;100708.97;5035673;28;20090;-51
2022/01/10 05:38:19;;;;;;;4.97;1.55;;;;;;;-0.59;100.00;100716.78;5036871;28;20534;-52
2022/01/10 05:40:44;;;;;;;2.45;0.98;;;;;;;-0.58;100.00;100722.81;5037710;28;20040;-51
2022/01/10 05:43:10;;;;;;;3.72;1.88;;;;;;;-0.58;100.00;100715.00;5042613;28;20496;-48
2022/01/10 05:45:36;;;;;;;3.25;1.15;;;;;;;-0.57;100.00;100711.44;5040654;28;20390;-51
2022/01/10 05:48:08;;;;;;;1.55;0.73;;;;;;;-0.54;100.00;100716.44;5037983;28;20409;-49
2022/01/10 05:50:36;;;;;;;7.55;1.02;;;;;;;-0.53;100.00;100720.72;5041270;28;20103;-50
2022/01/10 05:53:02;;;;;;;1.85;0.75;;;;;;;-0.54;100.00;100727.69;5036872;28;20040;-51
2022/01/10 05:55:28;;;;;;;5.03;1.05;;;;;;;-0.53;100.00;100724.13;5038841;28;20021;-51
2022/01/10 05:57:54;;;;;;;4.85;0.77;;;;;;;-0.52;100.00;100736.19;5036540;28;20033;-48
2022/01/10 06:00:19;;;;;;;6.30;1.17;;;;;;;-0.51;100.00;100743.09;5038866;28;20087;-49
2022/01/10 06:02:45;;;;;;;3.15;0.60;;;;;;;-0.50;100.00;100754.34;5042175;28;20466;-48
2022/01/10 06:05:10;;;;;;;3.75;1.20;;;;;;;-0.49;100.00;100756.00;5023453;28;20043;-49
2022/01/10 06:07:36;;;;;;;4.18;0.85;;;;;;;-0.47;100.00;100762.75;5037758;28;20043;-49
2022/01/10 06:10:04;;;;;;;12.13;1.63;;;;;;;-0.47;100.00;100762.75;5037959;28;20045;-52
2022/01/10 06:12:29;;;;;;;1.35;0.70;;;;;;;-0.44;100.00;100774.72;5046911;28;20028;-48
2022/01/10 06:14:55;;;;;;;6.47;1.42;;;;;;;-0.40;100.00;100780.56;5037339;28;20486;-53
2022/01/10 06:17:20;;;;;;;5.68;0.80;;;;;;;-0.37;100.00;100785.53;5046638;28;20601;-51
2022/01/10 06:19:45;;;;;;;2.60;1.10;;;;;;;-0.36;100.00;100805.41;5042020;28;20463;-51
2022/01/10 06:22:11;;;;;;;3.38;0.65;;;;;;;-0.36;100.00;100808.88;5044977;28;20033;-52
2022/01/10 06:24:36;;;;;;;3.63;0.82;;;;;;;-0.39;100.00;100798.66;5045399;28;20033;-53
2022/01/10 06:27:01;;;;;;;4.93;0.80;;;;;;;-0.41;100.00;100797.13;5040606;28;20037;-49
2022/01/10 06:29:27;;;;;;;3.92;0.57;;;;;;;-0.41;100.00;100786.69;5042298;28;20029;-49
2022/01/10 06:31:52;;;;;;;2.65;0.70;;;;;;;-0.43;100.00;100797.25;5041190;28;20427;-51
2022/01/10 06:34:18;;;;;;;4.22;0.93;;;;;;;-0.40;100.00;100799.63;5045754;28;20541;-51
2022/01/10 06:36:45;;;;;;;2.20;0.80;;;;;;;-0.37;100.00;100802.00;5038710;28;20037;-49
2022/01/10 06:39:11;;;;;;;2.67;1.02;;;;;;;-0.32;100.00;100820.72;5036324;28;20029;-50
2022/01/10 06:41:36;;;;;;;2.05;1.58;;;;;;;-0.29;100.00;100836.13;5046023;28;20060;-54
2022/01/10 06:44:02;;;;;;;1.90;1.05;;;;;;;-0.27;100.00;100842.06;5040046;28;20040;-50
2022/01/10 06:46:27;;;;;;;4.38;0.75;;;;;;;-0.26;100.00;100850.72;5054596;28;20110;-51
2022/01/10 06:48:52;;;;;;;2.60;0.70;;;;;;;-0.26;100.00;100856.78;5047040;28;20144;-54
2022/01/10 06:51:18;;;;;;;2.97;0.47;;;;;;;-0.26;100.00;100867.19;5042276;28;20036;-54
2022/01/10 06:53:43;;;;;;;0.73;0.73;;;;;;;-0.26;100.00;100866.34;5037062;28;20059;-51
2022/01/10 06:56:08;;;;;;;2.95;0.90;;;;;;;-0.27;100.00;100862.91;5025045;28;20072;-55
2022/01/10 06:58:34;;;;;;;2.05;0.60;;;;;;;-0.24;100.00;100864.47;5044035;28;20068;-53
2022/01/10 07:00:59;;;;;;;2.17;0.68;;;;;;;-0.23;100.00;100869.59;5043352;28;20115;-51
2022/01/10 07:03:25;;;;;;;5.47;1.05;;;;;;;-0.22;100.00;100884.25;5041698;28;20112;-53
2022/01/10 07:05:51;;;;;;;2.47;1.00;;;;;;;-0.22;100.00;100886.03;5036832;28;20394;-54
2022/01/10 07:08:16;;;;;;;1.73;0.73;;;;;;;-0.23;100.00;100890.44;5036436;28;20041;-50
2022/01/10 07:10:41;;;;;;;2.25;1.10;;;;;;;-0.18;100.00;100897.06;5042351;28;20102;-51
2022/01/10 07:13:07;;;;;;;1.85;0.50;;;;;;;-0.17;100.00;100890.94;5039171;28;20311;-51
2022/01/10 07:15:33;;;;;;;1.83;0.95;;;;;;;-0.13;100.00;100892.34;5037863;28;20037;-55
2022/01/10 07:17:58;;;;;;;1.48;0.98;;;;;;;-0.10;100.00;100892.97;5039879;28;20106;-51
2022/01/10 07:20:24;;;;;;;5.68;0.57;;;;;;;-0.09;100.00;100885.97;5037111;28;20099;-49
2022/01/10 07:22:49;;;;;;;3.75;0.68;;;;;;;-0.09;100.00;100885.97;5037110;28;20075;-51
2022/01/10 07:25:15;;;;;;;4.03;0.77;;;;;;;-0.09;100.00;100885.97;5036680;28;20548;-51
2022/01/10 07:27:40;;;;;;;1.20;0.15;;;;;;;-0.11;100.00;100883.47;5035716;28;21026;-53
2022/01/10 07:30:06;;;;;;;0.52;0.43;;;;;;;-0.09;100.00;100889.41;5037397;28;20478;-52
2022/01/10 07:32:32;;;;;;;6.20;1.17;;;;;;;-0.07;100.00;100891.94;5036734;28;20037;-52
2022/01/10 07:34:57;;;;;;;2.40;1.15;;;;;;;-0.03;100.00;100886.38;5034245;28;20038;-50
2022/01/10 07:37:23;;;;;;;2.63;1.13;;;;;;;0.04;100.00;100907.59;5039935;28;20098;-51
2022/01/10 07:39:48;;;;;;;3.95;0.73;;;;;;;0.10;100.00;100912.34;5037293;28;20126;-49
2022/01/10 07:42:14;;;;;;;7.18;1.27;;;;;;;0.11;100.00;100918.44;5037415;28;20052;-54
2022/01/10 07:44:40;;;;;;;2.95;0.88;;;;;;;0.13;100.00;100922.59;5039551;28;20032;-50
2022/01/10 07:47:05;;;;;;;7.35;1.20;;;;;;;0.14;100.00;100939.88;5037558;28;20032;-52
2022/01/10 07:49:31;;;;;;;13.02;2.85;;;;;;;0.15;100.00;100944.13;5042594;28;20085;-51
2022/01/10 07:51:57;;;;;;;1.70;0.95;;;;;;;0.19;100.00;100953.41;5039667;28;20910;-47
2022/01/10 07:54:24;;;;;;;7.35;2.45;;;;;;;0.26;100.00;100947.75;5041748;28;20035;-50
2022/01/10 07:56:50;;;;;;;1.52;1.00;;;;;;;0.28;100.00;100956.28;5036938;28;20037;-51
2022/01/10 07:59:16;;;;;;;5.32;0.63;;;;;;;0.25;100.00;100952.13;5037684;28;20504;-48
2022/01/10 08:01:41;;;;;;;1.23;1.13;;;;;;;0.24;100.00;100962.69;5037845;28;20036;-54
2022/01/10 08:04:07;;;;;;;6.53;0.75;;;;;;;0.25;100.00;100964.34;5033891;28;20067;-53
2022/01/10 08:06:32;;;;;;;4.57;0.68;;;;;;;0.23;100.00;100967.06;5036727;28;20413;-50
2022/01/10 08:08:58;;;;;;;1.85;1.48;;;;;;;0.28;100.00;100964.13;5033678;28;20090;-50
2022/01/10 08:11:26;;;;;;;4.55;1.10;;;;;;;0.32;100.00;100971.59;5034678;28;20048;-55
2022/01/10 08:13:52;;;;;;;1.83;0.60;;;;;;;0.35;100.00;100978.38;5024014;28;20140;-51
2022/01/10 08:16:17;;;;;;;3.38;1.23;;;;;;;0.36;100.00;100978.28;5036144;28;20473;-54
2022/01/10 08:18:43;;;;;;;5.07;1.10;;;;;;;0.41;100.00;100983.13;5037117;28;20343;-48
2022/01/10 08:21:08;;;;;;;1.60;0.70;;;;;;;0.46;100.00;100988.03;5040757;28;20032;-51
2022/01/10 08:23:34;;;;;;;4.88;0.80;;;;;;;0.52;100.00;100987.59;5035580;28;20639;-50
2022/01/10 08:25:59;;;;;;;3.33;1.10;;;;;;;0.52;100.00;100991.03;5035476;28;20068;-53
2022/01/10 08:28:25;;;;;;;4.70;2.35;;;;;;;0.51;100.00;100991.94;5037571;28;20029;-48
2022/01/10 08:30:51;;;;;;;3.50;0.63;;;;;;;0.49;100.00;100993.88;5037372;28;20095;-53
2022/01/10 08:33:16;;;;;;;3.90;1.55;;;;;;;0.50;100.00;100992.09;5038683;28;20029;-52
2022/01/10 08:35:42;;;;;;;6.65;2.28;;;;;;;0.53;100.00;100997.06;5033367;28;20108;-50
2022/01/10 08:38:07;;;;;;;3.90;1.25;;;;;;;0.58;100.00;101005.38;5030877;28;20122;-53
2022/01/10 08:40:33;;;;;;;6.03;2.08;;;;;;;0.61;100.00;101005.97;5042645;28;20089;-51
2022/01/10 08:43:00;;;;;;;2.88;0.73;;;;;;;0.61;100.00;101011.19;5041302;28;20489;-51
2022/01/10 08:45:26;;;;;;;7.45;1.15;;;;;;;0.60;100.00;101012.16;5035868;28;20417;-54
2022/01/10 08:47:51;;;;;;;3.45;1.40;;;;;;;0.62;100.00;101012.88;5037235;28;20140;-52
2022/01/10 08:50:17;;;;;;;2.35;0.90;;;;;;;0.64;100.00;101004.91;5039681;28;21710;-53
2022/01/10 08:52:42;;;;;;;2.53;0.52;;;;;;;0.68;100.00;101008.97;5033297;28;20467;-49
2022/01/10 08:55:09;;;;;;;3.95;0.43;;;;;;;0.72;100.00;101013.00;5039665;28;20036;-50
2022/01/10 08:57:35;;;;;;;4.05;0.82;;;;;;;0.75;100.00;101014.56;5032509;28;20121;-50
2022/01/10 09:00:03;;;;;;;3.03;0.95;;;;;;;0.77;100.00;101029.16;5029385;28;20052;-53
2022/01/10 09:02:29;;;;;;;3.00;1.63;;;;;;;0.79;100.00;101029.88;5039489;28;20032;-52
2022/01/10 09:04:54;;;;;;;2.03;0.85;;;;;;;0.82;100.00;101034.88;5032226;28;20037;-53
2022/01/10 09:07:19;;;;;;;2.15;0.73;;;;;;;0.87;100.00;101042.38;5043078;28;20533;-51
2022/01/10 09:09:45;;;;;;;4.18;1.23;;;;;;;0.92;100.00;101039.41;5035432;28;20030;-53
2022/01/10 09:12:11;;;;;;;2.25;1.90;;;;;;;1.00;100.00;101039.66;5047281;28;20120;-50
2022/01/10 09:14:37;;;;;;;3.40;0.90;;;;;;;1.07;100.00;101041.72;5045522;28;20040;-55
2022/01/10 09:17:03;;;;;;;6.72;1.05;;;;;;;1.14;100.00;101036.88;5037207;28;20030;-49
2022/01/10 09:19:28;;;;;;;5.97;1.27;;;;;;;1.20;100.00;101040.78;5044885;28;20505;-54
2022/01/10 09:21:54;;;;;;;3.95;1.70;;;;;;;1.24;100.00;101037.81;5039544;28;20074;-48
2022/01/10 09:24:19;;;;;;;4.13;1.13;;;;;;;1.28;100.00;101049.69;5040558;28;20041;-49
2022/01/10 09:26:45;;;;;;;5.15;1.30;;;;;;;1.31;100.00;101044.22;5047695;28;20036;-53
2022/01/10 09:29:10;;;;;;;5.10;1.25;;;;;;;1.35;100.00;101049.25;5041619;28;20052;-50
2022/01/10 09:31:36;;;;;;;6.60;1.52;;;;;;;1.40;100.00;101052.34;5035228;28;20152;-53
2022/01/10 09:34:02;;;;;;;3.00;1.50;;;;;;;1.46;100.00;101064.91;5040564;28;20540;-50
2022/01/10 09:36:29;;;;;;;4.68;1.05;;;;;;;1.49;100.00;101068.13;5037927;28;20651;-51
2022/01/10 09:38:57;;;;;;;6.30;1.70;;;;;;;1.52;100.00;101073.13;5047282;28;20037;-54
2022/01/10 09:41:23;;;;;;;3.83;0.95;;;;;;;1.56;100.00;101072.91;5038491;28;20029;-54
2022/01/10 09:43:56;;;;;;;4.40;1.08;;;;;;;1.63;100.00;101074.09;5049006;28;20036;-53
2022/01/10 09:46:22;;;;;;;5.55;1.30;;;;;;;1.69;100.00;101079.66;5043773;28;20028;-49
2022/01/10 09:48:48;;;;;;;3.22;2.05;;;;;;;1.77;100.00;101080.84;5038247;28;20446;-51
2022/01/10 09:51:14;;;;;;;4.28;1.02;;;;;;;1.85;100.00;101096.78;5047709;28;20153;-50
2022/01/10 09:53:40;;;;;;;10.38;1.73;;;;;;;1.91;100.00;101093.66;5041754;28;20097;-50
2022/01/10 09:56:05;;;;;;;8.35;1.35;;;;;;;2.00;100.00;101100.00;5042766;28;20519;-54
2022/01/10 09:58:31;;;;;;;4.07;1.55;;;;;;;2.05;100.00;101100.47;5034594;28;20475;-55
2022/01/10 10:00:58;;;;;;;4.03;1.23;;;;;;;2.11;100.00;101100.78;5041041;28;20040;-51
2022/01/10 10:03:24;;;;;;;6.55;2.22;;;;;;;2.15;100.00;101102.22;5035914;28;20047;-53
2022/01/10 10:05:56;;;;;;;8.30;3.10;;;;;;;2.23;100.00;101103.41;5042818;28;20500;-53
2022/01/10 10:08:24;;;;;;;6.13;1.50;;;;;;;2.28;100.00;101122.19;5042500;28;20068;-50
2022/01/10 10:10:50;;;;;;;7.88;2.03;;;;;;;2.31;100.00;101117.53;5040299;28;20068;-51
2022/01/10 10:13:16;;;;;;;5.15;1.10;;;;;;;2.35;100.00;101113.72;5038646;28;20063;-53
2022/01/10 10:15:44;;;;;;;2.55;0.80;;;;;;;2.43;100.00;101107.03;5043869;28;20021;-48
2022/01/10 10:18:14;;;;;;;5.13;1.42;;;;;;;2.47;100.00;101118.94;5042593;28;20044;-54
2022/01/10 10:20:41;;;;;;;4.47;1.45;;;;;;;2.51;100.00;101122.97;5045024;28;20033;-53
2022/01/10 10:23:11;;;;;;;5.10;1.30;;;;;;;2.62;100.00;101126.38;5047571;28;20134;-51
2022/01/10 10:25:37;;;;;;;6.15;1.52;;;;;;;2.73;100.00;101127.31;5037565;28;20036;-52
2022/01/10 10:28:03;;;;;;;4.45;1.88;;;;;;;2.78;100.00;101131.22;5041197;28;20429;-54
2022/01/10 10:30:31;;;;;;;14.13;2.83;;;;;;;2.95;100.00;101142.13;5037207;28;20036;-54
2022/01/10 10:33:23;;;;;;;10.05;4.68;;;;;;;3.13;100.00;101145.03;5036468;28;20035;-50
2022/01/10 10:35:56;;;;;;;;;;;;;;;3.26;100.00;101154.34;5035316;28;20047;-51
2022/01/10 10:38:25;;;;;;;12.07;3.65;;;;;;;3.34;100.00;101163.38;5041920;28;20296;-49
2022/01/10 10:40:51;;;;;;;8.05;2.80;;;;;;;3.42;100.00;101158.34;5047554;28;20024;-49
2022/01/10 10:43:16;;;;;;;14.38;2.85;;;;;;;3.48;100.00;101160.44;5043757;28;20355;-48
2022/01/10 10:45:43;;;;;;;12.80;3.35;;;;;;;3.55;100.00;101166.84;5039631;28;20359;-49
2022/01/10 10:48:09;;;;;;;9.00;3.40;;;;;;;3.59;100.00;101170.00;5041428;28;20020;-53
2022/01/10 10:50:43;;;;;;;7.25;2.45;;;;;;;3.66;100.00;101173.78;5046227;28;20106;-49
2022/01/10 10:53:14;;;;;;;15.10;4.88;;;;;;;3.71;100.00;101182.09;5045642;28;20035;-48
2022/01/10 10:55:41;;;;;;;13.45;5.38;;;;;;;3.73;100.00;101177.56;5037891;28;20112;-50
2022/01/10 10:58:08;;;;;;;12.25;4.72;;;;;;;3.78;100.00;101182.44;5048097;28;20029;-53
2022/01/10 11:00:34;;;;;;;38.10;9.07;;;;;;;3.80;100.00;101191.00;5040108;28;20074;-52
2022/01/10 11:02:59;;;;;;;34.00;10.80;;;;;;;3.81;100.00;101195.28;5044314;28;20033;-52
2022/01/10 11:05:25;;;;;;;30.25;9.88;;;;;;;3.83;100.00;101199.44;5045860;28;20433;-52
2022/01/10 11:07:51;;;;;;;29.92;11.32;;;;;;;3.84;100.00;101198.47;5040930;28;20151;-48
2022/01/10 11:10:16;;;;;;;23.10;7.53;;;;;;;3.87;100.00;101203.47;5039739;28;20037;-48
2022/01/10 11:12:47;;;;;;;16.30;6.82;;;;;;;3.92;100.00;101198.69;5039994;28;20051;-50
2022/01/10 11:15:13;;;;;;;13.75;6.07;;;;;;;3.94;100.00;101201.16;5046100;28;20417;-54
2022/01/10 11:17:40;;;;;;;20.10;5.55;;;;;;;3.96;100.00;101195.78;5044444;28;20032;-51
2022/01/10 11:20:15;;;;;;;16.25;6.10;;;;;;;3.95;100.00;101194.97;5040301;28;20182;-49
2022/01/10 11:22:42;;;;;;;10.43;3.75;;;;;;;3.95;100.00;101194.97;5040627;28;20070;-51
2022/01/10 11:25:24;;;;;;;8.50;3.35;;;;;;;3.94;100.00;101180.97;5041676;28;20202;-53
2022/01/10 11:27:51;;;;;;;11.20;3.83;;;;;;;3.94;100.00;101194.09;5033052;28;20204;-54